createdAt,value
2023-06-06T00:00:41.472Z,22.21
2023-06-06T00:01:41.457Z,22.24
2023-06-06T00:02:41.490Z,22.14
2023-06-06T00:03:41.572Z,22.20
2023-06-06T00:04:41.496Z,22.22
2023-06-06T00:05:41.463Z,22.22
2023-06-06T00:06:41.445Z,22.24
2023-06-06T00:07:41.445Z,22.12
2023-06-06T00:08:41.429Z,22.20
2023-06-06T00:09:41.477Z,22.20
2023-06-06T00:10:41.430Z,22.14
2023-06-06T00:11:41.455Z,22.06
2023-06-06T00:12:41.426Z,22.02
2023-06-06T00:13:41.440Z,22.09
2023-06-06T00:14:41.419Z,22.07
2023-06-06T00:15:41.422Z,22.09
2023-06-06T00:16:41.507Z,22.05
2023-06-06T00:17:41.430Z,22.05
2023-06-06T00:18:41.404Z,22.06
2023-06-06T00:19:41.402Z,22.07
2023-06-06T00:20:41.408Z,22.09
2023-06-06T00:21:41.424Z,22.06
2023-06-06T00:22:41.440Z,22.09
2023-06-06T00:23:41.414Z,22.10
2023-06-06T00:24:41.413Z,22.03
2023-06-06T00:25:41.413Z,22.10
2023-06-06T00:26:41.384Z,21.99
2023-06-06T00:27:41.389Z,22.06
2023-06-06T00:28:41.376Z,21.98
2023-06-06T00:29:41.379Z,21.99
2023-06-06T00:30:41.376Z,21.98
2023-06-06T00:31:41.444Z,21.94
2023-06-06T00:32:41.432Z,21.99
2023-06-06T00:33:41.365Z,21.98
2023-06-06T00:34:41.362Z,21.90
2023-06-06T00:35:41.373Z,22.05
2023-06-06T00:36:41.354Z,22.03
2023-06-06T00:37:41.373Z,21.98
2023-06-06T00:38:41.348Z,21.96
2023-06-06T00:39:41.364Z,21.92
2023-06-06T00:40:41.360Z,21.94
2023-06-06T00:41:41.472Z,21.83
2023-06-06T00:42:41.353Z,21.94
2023-06-06T00:43:41.338Z,21.96
2023-06-06T00:44:41.345Z,21.90
2023-06-06T00:45:41.355Z,21.94
2023-06-06T00:46:41.354Z,21.84
2023-06-06T00:47:41.360Z,21.90
2023-06-06T00:48:41.352Z,21.86
2023-06-06T00:49:41.319Z,21.90
2023-06-06T00:50:41.315Z,21.92
2023-06-06T00:51:41.315Z,21.88
2023-06-06T00:52:41.317Z,21.90
2023-06-06T00:53:41.332Z,21.80
2023-06-06T00:54:41.349Z,21.86
2023-06-06T00:55:41.339Z,21.86
2023-06-06T00:56:41.301Z,21.84
2023-06-06T00:57:43.087Z,21.77
2023-06-06T00:58:41.297Z,21.74
2023-06-06T00:59:41.301Z,21.71
2023-06-06T01:00:41.304Z,21.71
2023-06-06T01:01:41.306Z,21.62
2023-06-06T01:02:41.360Z,21.64
2023-06-06T01:03:41.421Z,21.62
2023-06-06T01:04:41.314Z,21.56
2023-06-06T01:05:41.269Z,21.61
2023-06-06T01:06:41.272Z,21.61
2023-06-06T01:07:41.272Z,21.56
2023-06-06T01:08:41.274Z,21.54
2023-06-06T01:09:41.276Z,21.53
2023-06-06T01:10:41.253Z,21.53
2023-06-06T01:11:41.255Z,21.58
2023-06-06T01:12:41.251Z,21.58
2023-06-06T01:13:41.273Z,21.52
2023-06-06T01:14:41.237Z,21.49
2023-06-06T01:15:41.283Z,21.54
2023-06-06T01:16:41.245Z,21.53
2023-06-06T01:17:41.272Z,21.53
2023-06-06T01:18:41.229Z,21.52
2023-06-06T01:19:41.246Z,21.50
2023-06-06T01:20:41.234Z,21.59
2023-06-06T01:21:41.227Z,21.58
2023-06-06T01:22:41.233Z,21.59
2023-06-06T01:23:41.259Z,21.44
2023-06-06T01:24:41.204Z,21.44
2023-06-06T01:25:41.206Z,21.50
2023-06-06T01:26:41.220Z,21.52
2023-06-06T01:27:41.198Z,21.50
2023-06-06T01:28:41.207Z,21.47
2023-06-06T01:29:41.210Z,21.47
2023-06-06T01:30:41.185Z,21.47
2023-06-06T01:31:41.311Z,21.42
2023-06-06T01:32:41.218Z,21.40
2023-06-06T01:33:41.204Z,21.37
2023-06-06T01:34:41.172Z,21.35
2023-06-06T01:35:41.184Z,21.40
2023-06-06T01:36:41.163Z,21.37
2023-06-06T01:37:41.163Z,21.37
2023-06-06T01:38:41.159Z,21.38
2023-06-06T01:39:41.160Z,21.32
2023-06-06T01:40:41.163Z,21.34
2023-06-06T01:41:41.152Z,21.29
2023-06-06T01:42:41.192Z,21.28
2023-06-06T01:43:41.158Z,21.17
2023-06-06T01:44:41.137Z,21.19
2023-06-06T01:45:41.174Z,21.14
2023-06-06T01:46:41.157Z,21.14
2023-06-06T01:47:41.193Z,21.12
2023-06-06T01:48:41.128Z,21.12
2023-06-06T01:49:41.117Z,21.14
2023-06-06T01:50:41.114Z,21.16
2023-06-06T01:51:41.110Z,21.13
2023-06-06T01:52:41.113Z,21.04
2023-06-06T01:53:41.127Z,21.03
2023-06-06T01:54:41.100Z,21.10
2023-06-06T01:55:41.102Z,21.09
2023-06-06T01:56:41.101Z,21.09
2023-06-06T01:57:41.100Z,21.07
2023-06-06T01:58:41.108Z,20.97
2023-06-06T01:59:41.082Z,20.94
2023-06-06T02:00:41.114Z,20.94
2023-06-06T02:01:41.091Z,20.98
2023-06-06T02:02:41.131Z,20.98
2023-06-06T02:03:41.163Z,20.95
2023-06-06T02:04:41.065Z,20.94
2023-06-06T02:05:41.075Z,20.92
2023-06-06T02:06:41.126Z,20.99
2023-06-06T02:07:41.070Z,20.97
2023-06-06T02:08:41.053Z,20.92
2023-06-06T02:09:41.047Z,20.91
2023-06-06T02:10:41.035Z,20.82
2023-06-06T02:11:41.050Z,20.76
2023-06-06T02:12:41.033Z,20.77
2023-06-06T02:13:41.032Z,20.76
2023-06-06T02:14:41.024Z,20.85
2023-06-06T02:15:41.026Z,20.77
2023-06-06T02:16:41.076Z,20.77
2023-06-06T02:17:41.070Z,20.80
2023-06-06T02:18:41.008Z,20.79
2023-06-06T02:19:41.057Z,20.76
2023-06-06T02:20:41.002Z,20.74
2023-06-06T02:21:41.010Z,20.79
2023-06-06T02:22:41.014Z,20.74
2023-06-06T02:23:41.064Z,20.84
2023-06-06T02:24:40.986Z,20.79
2023-06-06T02:25:40.987Z,20.79
2023-06-06T02:26:40.992Z,20.88
2023-06-06T02:27:40.980Z,20.79
2023-06-06T02:28:40.975Z,20.77
2023-06-06T02:29:40.969Z,20.82
2023-06-06T02:30:41.003Z,20.74
2023-06-06T02:31:40.964Z,20.70
2023-06-06T02:32:41.011Z,20.70
2023-06-06T02:33:40.978Z,20.72
2023-06-06T02:34:40.979Z,20.69
2023-06-06T02:35:40.948Z,20.70
2023-06-06T02:36:40.946Z,20.66
2023-06-06T02:37:40.968Z,20.70
2023-06-06T02:38:40.937Z,20.69
2023-06-06T02:39:40.936Z,20.64
2023-06-06T02:40:40.929Z,20.66
2023-06-06T02:41:40.930Z,20.51
2023-06-06T02:42:40.937Z,20.43
2023-06-06T02:43:40.923Z,20.55
2023-06-06T02:44:40.914Z,20.47
2023-06-06T02:45:40.904Z,20.54
2023-06-06T02:46:40.990Z,20.52
2023-06-06T02:47:40.920Z,20.51
2023-06-06T02:48:40.920Z,20.58
2023-06-06T02:49:40.922Z,20.50
2023-06-06T02:50:40.911Z,20.55
2023-06-06T02:51:40.881Z,20.54
2023-06-06T02:52:40.882Z,20.42
2023-06-06T02:53:40.870Z,20.58
2023-06-06T02:54:40.946Z,20.52
2023-06-06T02:55:40.870Z,20.50
2023-06-06T02:56:40.878Z,20.38
2023-06-06T02:57:40.858Z,20.41
2023-06-06T02:58:40.867Z,20.41
2023-06-06T02:59:40.849Z,20.35
2023-06-06T03:00:40.857Z,20.36
2023-06-06T03:01:40.877Z,20.36
2023-06-06T03:02:40.896Z,20.33
2023-06-06T03:03:40.885Z,20.32
2023-06-06T03:04:40.824Z,20.41
2023-06-06T03:05:40.861Z,20.32
2023-06-06T03:06:40.816Z,20.42
2023-06-06T03:07:40.814Z,20.35
2023-06-06T03:08:40.820Z,20.35
2023-06-06T03:09:40.811Z,20.29
2023-06-06T03:10:40.812Z,20.39
2023-06-06T03:11:40.799Z,20.39
2023-06-06T03:12:40.811Z,20.38
2023-06-06T03:13:40.788Z,20.35
2023-06-06T03:14:55.272Z,20.33
2023-06-06T03:15:40.786Z,20.36
2023-06-06T03:16:40.852Z,20.41
2023-06-06T03:17:40.798Z,20.35
2023-06-06T03:18:40.784Z,20.41
2023-06-06T03:19:40.762Z,20.26
2023-06-06T03:20:40.760Z,20.32
2023-06-06T03:21:40.775Z,20.32
2023-06-06T03:22:40.752Z,20.36
2023-06-06T03:23:40.813Z,20.47
2023-06-06T03:24:40.751Z,20.52
2023-06-06T03:25:40.734Z,20.64
2023-06-06T03:26:40.753Z,20.64
2023-06-06T03:27:40.746Z,20.69
2023-06-06T03:28:40.749Z,20.69
2023-06-06T03:29:40.737Z,20.82
2023-06-06T03:30:40.759Z,20.77
2023-06-06T03:31:40.761Z,20.88
2023-06-06T03:32:40.754Z,20.92
2023-06-06T03:33:40.825Z,21.01
2023-06-06T03:34:41.007Z,20.98
2023-06-06T03:35:40.713Z,21.07
2023-06-06T03:36:40.708Z,21.10
2023-06-06T03:37:40.745Z,21.17
2023-06-06T03:38:40.763Z,21.13
2023-06-06T03:39:40.725Z,21.17
2023-06-06T03:40:40.709Z,21.22
2023-06-06T03:41:40.686Z,21.21
2023-06-06T03:42:40.736Z,21.28
2023-06-06T03:43:40.708Z,21.31
2023-06-06T03:44:40.680Z,21.27
2023-06-06T03:45:40.717Z,21.42
2023-06-06T03:46:40.684Z,21.40
2023-06-06T03:47:40.748Z,21.42
2023-06-06T03:48:40.677Z,21.44
2023-06-06T03:49:40.672Z,21.42
2023-06-06T03:50:40.734Z,21.43
2023-06-06T03:51:40.689Z,21.46
2023-06-06T03:52:40.672Z,21.49
2023-06-06T03:53:40.736Z,21.43
2023-06-06T03:54:40.678Z,21.61
2023-06-06T03:55:40.681Z,21.61
2023-06-06T03:56:40.677Z,21.52
2023-06-06T03:57:40.659Z,21.59
2023-06-06T03:58:40.660Z,21.67
2023-06-06T03:59:40.717Z,21.61
2023-06-06T04:00:40.685Z,21.67
2023-06-06T04:01:40.675Z,21.65
2023-06-06T04:02:40.753Z,21.67
2023-06-06T04:03:40.861Z,21.68
2023-06-06T04:04:40.705Z,21.69
2023-06-06T04:05:40.649Z,21.75
2023-06-06T04:06:40.688Z,21.69
2023-06-06T04:07:40.663Z,21.74
2023-06-06T04:08:40.696Z,21.74
2023-06-06T04:09:40.735Z,21.82
2023-06-06T04:10:40.689Z,21.79
2023-06-06T04:11:40.649Z,21.82
2023-06-06T04:12:40.717Z,21.77
2023-06-06T04:13:40.681Z,21.74
2023-06-06T04:14:40.649Z,21.77
2023-06-06T04:15:40.693Z,21.90
2023-06-06T04:16:40.652Z,21.91
2023-06-06T04:17:40.656Z,21.91
2023-06-06T04:18:40.618Z,21.91
2023-06-06T04:19:40.639Z,21.92
2023-06-06T04:20:40.642Z,21.90
2023-06-06T04:21:40.644Z,21.94
2023-06-06T04:22:40.624Z,21.86
2023-06-06T04:23:40.683Z,21.94
2023-06-06T04:24:40.647Z,21.99
2023-06-06T04:25:40.640Z,21.99
2023-06-06T04:26:40.614Z,21.80
2023-06-06T04:27:40.630Z,21.90
2023-06-06T04:28:40.616Z,21.96
2023-06-06T04:29:40.601Z,21.98
2023-06-06T04:30:40.614Z,21.96
2023-06-06T04:31:40.645Z,22.02
2023-06-06T04:32:40.658Z,21.91
2023-06-06T04:33:40.614Z,21.98
2023-06-06T04:34:40.602Z,21.99
2023-06-06T04:35:40.610Z,21.98
2023-06-06T04:36:40.606Z,21.98
2023-06-06T04:37:40.614Z,22.03
2023-06-06T04:38:40.629Z,21.99
2023-06-06T04:39:40.597Z,22.00
2023-06-06T04:40:57.821Z,22.06
2023-06-06T04:42:40.588Z,22.10
2023-06-06T04:43:40.591Z,22.05
2023-06-06T04:44:40.587Z,22.07
2023-06-06T04:45:40.578Z,22.09
2023-06-06T04:46:40.650Z,22.05
2023-06-06T04:47:40.589Z,22.14
2023-06-06T04:48:40.604Z,22.05
2023-06-06T04:49:40.577Z,22.05
2023-06-06T04:50:40.582Z,22.17
2023-06-06T04:51:40.586Z,22.14
2023-06-06T04:52:40.582Z,22.09
2023-06-06T04:53:40.590Z,22.10
2023-06-06T04:54:40.587Z,22.18
2023-06-06T04:55:40.572Z,22.14
2023-06-06T04:56:40.578Z,22.24
2023-06-06T04:57:40.587Z,22.24
2023-06-06T04:58:40.581Z,22.22
2023-06-06T04:59:40.564Z,22.21
2023-06-06T05:00:40.635Z,22.17
2023-06-06T05:01:40.570Z,22.20
2023-06-06T05:02:40.573Z,22.20
2023-06-06T05:03:40.601Z,22.20
2023-06-06T05:04:40.567Z,22.21
2023-06-06T05:05:40.559Z,22.20
2023-06-06T05:06:40.565Z,22.15
2023-06-06T05:07:40.579Z,22.27
2023-06-06T05:08:40.570Z,22.20
2023-06-06T05:09:40.556Z,22.22
2023-06-06T05:10:40.565Z,22.25
2023-06-06T05:11:40.557Z,22.27
2023-06-06T05:12:40.565Z,22.27
2023-06-06T05:13:40.586Z,22.30
2023-06-06T05:14:40.585Z,22.30
2023-06-06T05:15:40.552Z,22.31
2023-06-06T05:16:40.597Z,22.28
2023-06-06T05:17:40.564Z,22.30
2023-06-06T05:18:40.558Z,22.25
2023-06-06T05:19:40.550Z,22.33
2023-06-06T05:20:40.563Z,22.37
2023-06-06T05:21:40.549Z,22.40
2023-06-06T05:22:40.571Z,22.39
2023-06-06T05:23:40.602Z,22.47
2023-06-06T05:24:40.550Z,22.45
2023-06-06T05:25:40.541Z,22.46
2023-06-06T05:26:40.553Z,22.49
2023-06-06T05:27:40.556Z,22.54
2023-06-06T05:28:40.543Z,22.54
2023-06-06T05:29:40.564Z,22.55
2023-06-06T05:30:40.587Z,22.61
2023-06-06T05:31:40.623Z,22.57
2023-06-06T05:32:40.656Z,22.65
2023-06-06T05:33:40.541Z,22.60
2023-06-06T05:34:40.550Z,22.61
2023-06-06T05:35:40.543Z,22.60
2023-06-06T05:36:40.543Z,22.67
2023-06-06T05:37:40.552Z,22.70
2023-06-06T05:38:40.570Z,22.67
2023-06-06T05:39:40.535Z,22.77
2023-06-06T05:40:40.567Z,22.80
2023-06-06T05:41:40.556Z,22.80
2023-06-06T05:42:40.544Z,22.82
2023-06-06T05:43:40.539Z,22.82
2023-06-06T05:44:40.541Z,22.80
2023-06-06T05:45:42.745Z,22.90
2023-06-06T05:46:40.633Z,22.86
2023-06-06T05:47:40.578Z,22.94
2023-06-06T05:48:40.544Z,22.94
2023-06-06T05:49:40.534Z,22.94
2023-06-06T05:50:40.558Z,22.94
2023-06-06T05:51:40.531Z,23.01
2023-06-06T05:52:40.554Z,22.92
2023-06-06T05:53:40.534Z,22.97
2023-06-06T05:54:49.569Z,23.01
2023-06-06T05:55:40.543Z,23.01
2023-06-06T05:56:40.529Z,23.04
2023-06-06T05:57:40.532Z,23.05
2023-06-06T05:58:41.892Z,23.04
2023-06-06T05:59:40.535Z,23.05
2023-06-06T06:00:40.545Z,23.12
2023-06-06T06:01:40.564Z,23.13
2023-06-06T06:02:40.710Z,23.10
2023-06-06T06:03:40.627Z,23.16
2023-06-06T06:04:40.562Z,23.09
2023-06-06T06:05:40.539Z,23.16
2023-06-06T06:06:40.537Z,23.17
2023-06-06T06:07:40.538Z,23.22
2023-06-06T06:08:40.537Z,23.16
2023-06-06T06:09:40.625Z,23.22
2023-06-06T06:10:40.551Z,23.25
2023-06-06T06:11:40.538Z,23.17
2023-06-06T06:12:40.530Z,23.22
2023-06-06T06:13:40.530Z,23.16
2023-06-06T06:14:40.529Z,23.27
2023-06-06T06:15:40.536Z,23.31
2023-06-06T06:16:40.577Z,23.32
2023-06-06T06:17:40.601Z,23.23
2023-06-06T06:18:40.529Z,23.25
2023-06-06T06:19:40.540Z,23.33
2023-06-06T06:20:40.539Z,23.40
2023-06-06T06:21:40.530Z,23.39
2023-06-06T06:22:40.551Z,23.35
2023-06-06T06:23:40.576Z,23.35
2023-06-06T06:24:40.548Z,23.35
2023-06-06T06:25:40.547Z,23.32
2023-06-06T06:26:40.546Z,23.40
2023-06-06T06:27:40.541Z,23.43
2023-06-06T06:28:40.545Z,23.46
2023-06-06T06:29:40.533Z,23.40
2023-06-06T06:30:40.539Z,23.47
2023-06-06T06:31:40.608Z,23.48
2023-06-06T06:32:41.784Z,23.51
2023-06-06T06:33:40.690Z,23.50
2023-06-06T06:34:40.577Z,23.47
2023-06-06T06:35:40.547Z,23.51
2023-06-06T06:36:40.543Z,23.48
2023-06-06T06:37:40.871Z,23.51
2023-06-06T06:38:40.556Z,23.47
2023-06-06T06:39:40.655Z,23.51
2023-06-06T06:40:40.549Z,23.58
2023-06-06T06:41:40.539Z,23.51
2023-06-06T06:42:40.540Z,23.55
2023-06-06T06:43:40.567Z,23.60
2023-06-06T06:44:42.179Z,23.55
2023-06-06T06:45:40.591Z,23.60
2023-06-06T06:46:40.537Z,23.57
2023-06-06T06:47:40.559Z,23.68
2023-06-06T06:48:40.560Z,23.66
2023-06-06T06:49:40.710Z,23.68
2023-06-06T06:50:40.543Z,23.60
2023-06-06T06:51:40.537Z,23.65
2023-06-06T06:52:40.542Z,23.66
2023-06-06T06:53:40.542Z,23.65
2023-06-06T06:54:40.542Z,23.66
2023-06-06T06:55:40.553Z,23.66
2023-06-06T06:56:40.565Z,23.69
2023-06-06T06:57:40.543Z,23.76
2023-06-06T06:58:40.534Z,23.75
2023-06-06T06:59:40.545Z,23.76
2023-06-06T07:00:40.541Z,23.73
2023-06-06T07:01:40.564Z,23.70
2023-06-06T07:02:40.639Z,23.76
2023-06-06T07:03:40.556Z,23.84
2023-06-06T07:04:40.539Z,23.78
2023-06-06T07:05:40.770Z,23.73
2023-06-06T07:06:40.544Z,23.83
2023-06-06T07:07:40.545Z,23.85
2023-06-06T07:08:40.558Z,23.85
2023-06-06T07:09:40.551Z,23.90
2023-06-06T07:10:40.545Z,23.84
2023-06-06T07:11:40.545Z,23.88
2023-06-06T07:12:40.552Z,23.95
2023-06-06T07:13:40.540Z,23.91
2023-06-06T07:14:40.539Z,23.95
2023-06-06T07:15:40.562Z,23.91
2023-06-06T07:16:40.552Z,23.95
2023-06-06T07:17:40.612Z,24.00
2023-06-06T07:18:40.560Z,23.91
2023-06-06T07:19:40.542Z,23.98
2023-06-06T07:20:40.569Z,24.05
2023-06-06T07:21:40.569Z,24.03
2023-06-06T07:22:40.559Z,24.13
2023-06-06T07:23:40.692Z,24.10
2023-06-06T07:24:40.561Z,24.18
2023-06-06T07:25:40.545Z,24.20
2023-06-06T07:26:40.551Z,24.09
2023-06-06T07:27:40.551Z,24.25
2023-06-06T07:28:42.965Z,24.21
2023-06-06T07:29:40.553Z,24.27
2023-06-06T07:30:40.549Z,24.27
2023-06-06T07:31:40.630Z,24.12
2023-06-06T07:32:40.550Z,24.25
2023-06-06T07:33:40.562Z,24.35
2023-06-06T07:34:40.561Z,24.28
2023-06-06T07:35:40.552Z,24.31
2023-06-06T07:36:40.557Z,24.34
2023-06-06T07:37:40.573Z,24.32
2023-06-06T07:38:40.575Z,24.47
2023-06-06T07:39:40.564Z,24.43
2023-06-06T07:40:40.557Z,24.46
2023-06-06T07:41:40.564Z,24.50
2023-06-06T07:42:40.576Z,24.46
2023-06-06T07:43:40.573Z,24.42
2023-06-06T07:44:40.559Z,24.46
2023-06-06T07:45:40.570Z,24.50
2023-06-06T07:46:40.579Z,24.50
2023-06-06T07:47:40.672Z,24.57
2023-06-06T07:48:40.568Z,24.60
2023-06-06T07:49:40.568Z,24.58
2023-06-06T07:50:40.569Z,24.71
2023-06-06T07:51:40.571Z,24.76
2023-06-06T07:52:40.571Z,24.73
2023-06-06T07:53:40.681Z,24.68
2023-06-06T07:54:40.562Z,24.76
2023-06-06T07:55:40.560Z,24.78
2023-06-06T07:56:40.580Z,24.76
2023-06-06T07:57:40.716Z,24.90
2023-06-06T07:58:40.573Z,24.91
2023-06-06T07:59:40.575Z,24.83
2023-06-06T08:00:40.575Z,24.91
2023-06-06T08:01:40.678Z,24.91
2023-06-06T08:02:40.751Z,24.95
2023-06-06T08:03:40.573Z,24.98
2023-06-06T08:04:40.577Z,24.99
2023-06-06T08:05:40.592Z,25.06
2023-06-06T08:06:40.569Z,25.09
2023-06-06T08:07:40.580Z,25.13
2023-06-06T08:08:40.571Z,25.14
2023-06-06T08:09:40.717Z,25.17
2023-06-06T08:10:40.596Z,25.14
2023-06-06T08:11:40.597Z,25.18
2023-06-06T08:12:40.585Z,25.23
2023-06-06T08:13:40.582Z,25.24
2023-06-06T08:14:40.582Z,25.24
2023-06-06T08:15:40.575Z,25.33
2023-06-06T08:16:40.580Z,25.27
2023-06-06T08:17:40.662Z,25.33
2023-06-06T08:18:40.593Z,25.33
2023-06-06T08:19:40.588Z,25.36
2023-06-06T08:20:40.580Z,25.38
2023-06-06T08:21:40.591Z,25.38
2023-06-06T08:22:40.583Z,25.43
2023-06-06T08:23:40.681Z,25.50
2023-06-06T08:24:40.595Z,25.45
2023-06-06T08:25:40.624Z,25.55
2023-06-06T08:26:40.588Z,25.55
2023-06-06T08:27:40.585Z,25.46
2023-06-06T08:28:40.638Z,25.67
2023-06-06T08:29:40.595Z,25.54
2023-06-06T08:30:40.629Z,25.62
2023-06-06T08:31:40.631Z,25.69
2023-06-06T08:32:40.644Z,25.62
2023-06-06T08:33:40.590Z,25.72
2023-06-06T08:34:40.598Z,25.67
2023-06-06T08:35:40.602Z,25.76
2023-06-06T08:36:40.589Z,25.70
2023-06-06T08:37:40.592Z,25.79
2023-06-06T08:38:40.586Z,25.80
2023-06-06T08:39:40.598Z,25.83
2023-06-06T08:40:40.588Z,25.85
2023-06-06T08:41:40.658Z,25.87
2023-06-06T08:42:40.592Z,25.92
2023-06-06T08:43:40.592Z,25.94
2023-06-06T08:44:40.590Z,25.97
2023-06-06T08:45:40.599Z,25.95
2023-06-06T08:46:40.630Z,25.95
2023-06-06T08:47:40.629Z,25.95
2023-06-06T08:48:40.605Z,25.92
2023-06-06T08:49:40.600Z,25.97
2023-06-06T08:50:40.620Z,25.92
2023-06-06T08:51:40.626Z,25.97
2023-06-06T08:52:40.606Z,25.97
2023-06-06T08:53:40.616Z,25.98
2023-06-06T08:54:40.602Z,25.91
2023-06-06T08:55:40.616Z,25.87
2023-06-06T08:56:40.608Z,25.90
2023-06-06T08:57:40.716Z,25.87
2023-06-06T08:58:40.606Z,25.82
2023-06-06T08:59:40.606Z,25.76
2023-06-06T09:00:40.617Z,25.72
2023-06-06T09:01:40.636Z,25.70
2023-06-06T09:02:40.652Z,25.61
2023-06-06T09:03:40.649Z,25.65
2023-06-06T09:04:40.615Z,25.58
2023-06-06T09:05:40.610Z,25.57
2023-06-06T09:06:40.613Z,25.58
2023-06-06T09:07:40.610Z,25.51
2023-06-06T09:08:40.614Z,25.57
2023-06-06T09:09:40.610Z,25.45
2023-06-06T09:10:40.619Z,25.39
2023-06-06T09:11:40.626Z,25.38
2023-06-06T09:12:40.620Z,25.42
2023-06-06T09:13:40.639Z,25.33
2023-06-06T09:14:40.629Z,25.32
2023-06-06T09:15:40.623Z,25.36
2023-06-06T09:16:40.730Z,25.38
2023-06-06T09:17:40.703Z,25.28
2023-06-06T09:18:40.626Z,25.28
2023-06-06T09:19:40.628Z,25.20
2023-06-06T09:20:40.655Z,25.15
2023-06-06T09:21:40.636Z,25.18
2023-06-06T09:22:40.622Z,25.15
2023-06-06T09:23:40.726Z,25.09
2023-06-06T09:24:40.713Z,25.06
2023-06-06T09:25:40.651Z,25.14
2023-06-06T09:26:40.625Z,25.08
2023-06-06T09:27:40.631Z,25.02
2023-06-06T09:28:40.631Z,24.96
2023-06-06T09:29:40.782Z,24.96
2023-06-06T09:30:40.663Z,25.00
2023-06-06T09:31:40.622Z,24.93
2023-06-06T09:32:43.104Z,24.96
2023-06-06T09:33:40.670Z,24.96
2023-06-06T09:34:40.634Z,24.95
2023-06-06T09:35:40.626Z,24.81
2023-06-06T09:36:40.629Z,24.84
2023-06-06T09:37:40.647Z,24.83
2023-06-06T09:38:40.631Z,24.81
2023-06-06T09:39:40.631Z,24.91
2023-06-06T09:40:40.627Z,24.91
2023-06-06T09:41:40.632Z,24.81
2023-06-06T09:42:40.627Z,24.77
2023-06-06T09:43:40.637Z,24.78
2023-06-06T09:44:40.746Z,24.83
2023-06-06T09:45:40.797Z,24.83
2023-06-06T09:46:40.728Z,24.80
2023-06-06T09:47:40.705Z,24.83
2023-06-06T09:48:40.632Z,24.77
2023-06-06T09:49:40.670Z,24.80
2023-06-06T09:50:40.708Z,24.77
2023-06-06T09:51:40.638Z,24.69
2023-06-06T09:52:41.248Z,24.78
2023-06-06T09:53:40.686Z,24.73
2023-06-06T09:54:40.637Z,24.73
2023-06-06T09:55:40.639Z,24.77
2023-06-06T09:56:40.709Z,24.71
2023-06-06T09:57:40.653Z,24.67
2023-06-06T09:58:40.635Z,24.69
2023-06-06T09:59:40.639Z,24.69
2023-06-06T10:00:40.652Z,24.69
2023-06-06T10:01:40.802Z,24.68
2023-06-06T10:02:40.835Z,24.67
2023-06-06T10:03:40.722Z,24.68
2023-06-06T10:04:40.690Z,24.62
2023-06-06T10:05:40.648Z,24.68
2023-06-06T10:06:40.637Z,24.58
2023-06-06T10:07:40.645Z,24.55
2023-06-06T10:08:40.656Z,24.58
2023-06-06T10:09:40.709Z,24.55
2023-06-06T10:10:40.637Z,24.58
2023-06-06T10:11:40.640Z,24.58
2023-06-06T10:12:40.690Z,24.55
2023-06-06T10:13:40.665Z,24.58
2023-06-06T10:14:40.636Z,24.53
2023-06-06T10:15:40.656Z,24.57
2023-06-06T10:16:40.652Z,24.55
2023-06-06T10:17:40.791Z,24.49
2023-06-06T10:18:40.643Z,24.57
2023-06-06T10:19:40.667Z,24.60
2023-06-06T10:20:40.641Z,24.50
2023-06-06T10:21:40.667Z,24.50
2023-06-06T10:22:40.748Z,24.55
2023-06-06T10:23:40.780Z,24.57
2023-06-06T10:24:40.667Z,24.55
2023-06-06T10:25:40.656Z,24.55
2023-06-06T10:26:40.656Z,24.49
2023-06-06T10:27:40.750Z,24.50
2023-06-06T10:28:40.655Z,24.52
2023-06-06T10:29:40.709Z,24.52
2023-06-06T10:30:40.641Z,24.45
2023-06-06T10:31:40.687Z,24.52
2023-06-06T10:32:40.697Z,24.46
2023-06-06T10:33:40.801Z,24.50
2023-06-06T10:34:40.642Z,24.50
2023-06-06T10:35:40.653Z,24.46
2023-06-06T10:36:40.667Z,24.47
2023-06-06T10:37:40.849Z,24.43
2023-06-06T10:38:40.656Z,24.46
2023-06-06T10:39:40.668Z,24.52
2023-06-06T10:40:40.646Z,24.49
2023-06-06T10:41:40.657Z,24.35
2023-06-06T10:42:40.764Z,24.43
2023-06-06T10:43:40.645Z,24.45
2023-06-06T10:44:40.651Z,24.37
2023-06-06T10:45:40.651Z,24.43
2023-06-06T10:46:40.683Z,24.31
2023-06-06T10:47:40.739Z,24.40
2023-06-06T10:48:40.679Z,24.34
2023-06-06T10:49:40.717Z,24.40
2023-06-06T10:50:40.649Z,24.46
2023-06-06T10:51:40.655Z,24.34
2023-06-06T10:52:40.645Z,24.28
2023-06-06T10:53:40.648Z,24.40
2023-06-06T10:54:40.670Z,24.40
2023-06-06T10:55:40.667Z,24.46
2023-06-06T10:56:40.658Z,24.34
2023-06-06T10:57:40.684Z,24.42
2023-06-06T10:58:40.669Z,24.46
2023-06-06T10:59:40.695Z,24.39
2023-06-06T11:00:40.837Z,24.43
2023-06-06T11:01:40.687Z,24.45
2023-06-06T11:02:40.690Z,24.42
2023-06-06T11:03:40.859Z,24.47
2023-06-06T11:04:40.683Z,24.46
2023-06-06T11:05:40.681Z,24.40
2023-06-06T11:06:40.663Z,24.43
2023-06-06T11:07:40.677Z,24.40
2023-06-06T11:08:40.674Z,24.47
2023-06-06T11:09:40.661Z,24.40
2023-06-06T11:10:40.680Z,24.42
2023-06-06T11:11:40.668Z,24.39
2023-06-06T11:12:40.670Z,24.37
2023-06-06T11:13:40.661Z,24.42
2023-06-06T11:14:40.671Z,24.37
2023-06-06T11:15:40.666Z,24.42
2023-06-06T11:16:40.747Z,24.42
2023-06-06T11:17:40.733Z,24.47
2023-06-06T11:18:40.661Z,24.42
2023-06-06T11:19:40.660Z,24.45
2023-06-06T11:20:40.712Z,24.46
2023-06-06T11:21:40.745Z,24.50
2023-06-06T11:22:40.650Z,24.42
2023-06-06T11:23:40.666Z,24.45
2023-06-06T11:24:40.659Z,24.46
2023-06-06T11:25:40.650Z,24.35
2023-06-06T11:26:40.683Z,24.42
2023-06-06T11:27:40.698Z,24.46
2023-06-06T11:28:40.670Z,24.49
2023-06-06T11:29:40.693Z,24.46
2023-06-06T11:30:40.850Z,24.46
2023-06-06T11:31:40.770Z,24.50
2023-06-06T11:32:40.693Z,24.45
2023-06-06T11:33:40.690Z,24.46
2023-06-06T11:34:40.768Z,24.49
2023-06-06T11:35:41.176Z,24.43
2023-06-06T11:36:40.653Z,24.47
2023-06-06T11:37:40.865Z,24.49
2023-06-06T11:38:40.775Z,24.49
2023-06-06T11:39:40.678Z,24.49
2023-06-06T11:40:40.706Z,24.45
2023-06-06T11:41:40.689Z,24.50
2023-06-06T11:42:40.700Z,24.45
2023-06-06T11:43:40.689Z,24.47
2023-06-06T11:44:40.672Z,24.46
2023-06-06T11:45:40.677Z,24.47
2023-06-06T11:46:40.712Z,24.47
2023-06-06T11:47:40.843Z,24.49
2023-06-06T11:48:40.677Z,24.55
2023-06-06T11:49:40.752Z,24.49
2023-06-06T11:50:40.660Z,24.53
2023-06-06T11:51:40.673Z,24.47
2023-06-06T11:52:40.806Z,24.57
2023-06-06T11:53:40.771Z,24.43
2023-06-06T11:54:40.731Z,24.49
2023-06-06T11:55:40.699Z,24.52
2023-06-06T11:56:40.687Z,24.46
2023-06-06T11:57:40.736Z,24.45
2023-06-06T11:58:40.691Z,24.47
2023-06-06T11:59:40.676Z,24.49
2023-06-06T12:00:40.694Z,24.55
2023-06-06T12:01:40.642Z,24.45
2023-06-06T12:02:41.043Z,24.45
2023-06-06T12:03:40.784Z,24.46
2023-06-06T12:04:40.666Z,24.49
2023-06-06T12:05:40.705Z,24.45
2023-06-06T12:06:40.727Z,24.47
2023-06-06T12:07:40.683Z,24.55
2023-06-06T12:08:40.685Z,24.46
2023-06-06T12:09:40.753Z,24.52
2023-06-06T12:10:40.672Z,24.46
2023-06-06T12:11:40.653Z,24.49
2023-06-06T12:12:40.667Z,24.52
2023-06-06T12:13:40.678Z,24.47
2023-06-06T12:14:40.759Z,24.52
2023-06-06T12:15:40.713Z,24.43
2023-06-06T12:16:40.734Z,24.45
2023-06-06T12:17:40.690Z,24.47
2023-06-06T12:18:40.685Z,24.58
2023-06-06T12:19:40.762Z,24.47
2023-06-06T12:20:40.689Z,24.49
2023-06-06T12:21:40.680Z,24.43
2023-06-06T12:22:40.725Z,24.53
2023-06-06T12:23:40.764Z,24.50
2023-06-06T12:24:40.683Z,24.47
2023-06-06T12:25:40.761Z,24.47
2023-06-06T12:26:40.680Z,24.52
2023-06-06T12:27:40.672Z,24.50
2023-06-06T12:28:40.724Z,24.46
2023-06-06T12:29:40.734Z,24.49
2023-06-06T12:30:40.686Z,24.49
2023-06-06T12:31:40.725Z,24.45
2023-06-06T12:32:40.703Z,24.42
2023-06-06T12:33:40.654Z,24.46
2023-06-06T12:34:40.729Z,24.47
2023-06-06T12:35:40.662Z,24.50
2023-06-06T12:36:40.674Z,24.46
2023-06-06T12:37:40.686Z,24.47
2023-06-06T12:38:40.680Z,24.43
2023-06-06T12:39:40.680Z,24.46
2023-06-06T12:40:40.704Z,24.47
2023-06-06T12:41:40.862Z,24.47
2023-06-06T12:42:40.679Z,24.46
2023-06-06T12:43:40.672Z,24.55
2023-06-06T12:44:40.679Z,24.49
2023-06-06T12:45:40.687Z,24.46
2023-06-06T12:46:40.791Z,24.42
2023-06-06T12:47:40.702Z,24.53
2023-06-06T12:48:40.674Z,24.45
2023-06-06T12:49:40.677Z,24.50
2023-06-06T12:50:40.664Z,24.57
2023-06-06T12:51:40.898Z,24.52
2023-06-06T12:52:40.673Z,24.49
2023-06-06T12:53:40.736Z,24.49